createdAt,value
2023-03-29T00:02:00.267Z,1.20
2023-03-29T00:04:31.219Z,1.95
2023-03-29T00:07:04.965Z,1.30
2023-03-29T00:09:36.435Z,1.10
2023-03-29T00:12:11.692Z,1.58
2023-03-29T00:17:13.271Z,1.00
2023-03-29T00:19:46.922Z,1.30
2023-03-29T00:22:18.426Z,0.98
2023-03-29T00:24:49.905Z,1.10
2023-03-29T00:27:23.853Z,1.20
2023-03-29T00:29:54.880Z,1.10
2023-03-29T00:32:26.094Z,1.15
2023-03-29T00:34:57.045Z,1.20
2023-03-29T00:37:28.068Z,1.40
2023-03-29T00:39:59.565Z,1.30
2023-03-29T00:42:33.209Z,2.22
2023-03-29T00:45:08.008Z,1.20
2023-03-29T00:47:43.098Z,1.20
2023-03-29T00:50:18.985Z,1.33
2023-03-29T00:52:55.089Z,1.27
2023-03-29T00:55:30.133Z,1.20
2023-03-29T00:58:05.762Z,1.40
2023-03-29T01:00:40.661Z,1.35
2023-03-29T01:03:25.283Z,1.27
2023-03-29T01:06:02.168Z,1.60
2023-03-29T01:08:35.743Z,1.30
2023-03-29T01:11:11.742Z,1.52
2023-03-29T01:13:51.030Z,1.45
2023-03-29T01:16:24.277Z,1.50
2023-03-29T01:18:55.530Z,1.40
2023-03-29T01:21:32.698Z,1.25
2023-03-29T01:24:21.071Z,1.70
2023-03-29T01:27:01.031Z,1.20
2023-03-29T01:29:39.368Z,1.50
2023-03-29T01:32:14.770Z,1.67
2023-03-29T01:34:51.471Z,1.52
2023-03-29T01:37:28.193Z,1.77
2023-03-29T01:39:59.005Z,1.85
2023-03-29T01:42:39.929Z,1.60
2023-03-29T01:45:23.583Z,1.70
2023-03-29T01:48:02.111Z,1.80
2023-03-29T01:50:44.773Z,1.70
2023-03-29T01:53:20.977Z,1.70
2023-03-29T01:55:56.875Z,2.00
2023-03-29T01:58:34.142Z,1.77
2023-03-29T02:01:10.688Z,1.88
2023-03-29T02:03:47.708Z,1.75
2023-03-29T02:06:22.688Z,1.80
2023-03-29T02:08:56.291Z,1.65
2023-03-29T02:11:29.684Z,1.75
2023-03-29T02:14:01.135Z,1.60
2023-03-29T02:16:39.273Z,2.00
2023-03-29T02:19:11.957Z,1.73
2023-03-29T02:21:50.028Z,1.70
2023-03-29T02:24:24.719Z,2.65
2023-03-29T02:26:55.728Z,2.00
2023-03-29T02:29:26.773Z,2.08
2023-03-29T02:32:08.658Z,2.00
2023-03-29T02:34:48.086Z,1.90
2023-03-29T02:37:24.725Z,3.20
2023-03-29T02:39:56.423Z,2.63
2023-03-29T02:42:28.614Z,1.98
2023-03-29T02:45:02.390Z,1.98
2023-03-29T02:47:41.656Z,2.08
2023-03-29T02:50:13.342Z,2.53
2023-03-29T02:52:49.582Z,2.13
2023-03-29T02:55:22.013Z,2.00
2023-03-29T02:57:53.102Z,1.90
2023-03-29T03:00:24.938Z,2.08
2023-03-29T03:03:00.653Z,2.40
2023-03-29T03:05:33.136Z,2.20
2023-03-29T03:08:05.031Z,2.35
2023-03-29T03:10:36.037Z,2.33
2023-03-29T03:13:08.441Z,2.33
2023-03-29T03:15:42.979Z,2.42
2023-03-29T03:18:17.052Z,2.03
2023-03-29T03:20:57.634Z,2.30
2023-03-29T03:23:29.198Z,2.35
2023-03-29T03:26:00.409Z,2.50
2023-03-29T03:28:33.459Z,2.30
2023-03-29T03:31:07.742Z,2.33
2023-03-29T03:34:00.285Z,2.30
2023-03-29T03:36:45.527Z,2.40
2023-03-29T03:39:17.713Z,2.35
2023-03-29T03:41:48.909Z,2.50
2023-03-29T03:44:21.289Z,2.50
2023-03-29T03:47:03.549Z,2.47
2023-03-29T03:49:38.002Z,2.60
2023-03-29T03:52:09.104Z,3.05
2023-03-29T03:54:40.046Z,2.63
2023-03-29T03:57:29.709Z,3.22
2023-03-29T04:00:00.740Z,2.58
2023-03-29T04:02:43.675Z,3.22
2023-03-29T04:05:17.745Z,3.47
2023-03-29T04:07:49.377Z,2.50
2023-03-29T04:10:39.821Z,2.50
2023-03-29T04:13:18.891Z,3.10
2023-03-29T04:16:13.267Z,2.80
2023-03-29T04:18:44.842Z,3.17
2023-03-29T04:21:21.246Z,2.67
2023-03-29T04:23:52.771Z,2.85
2023-03-29T04:26:23.706Z,3.22
2023-03-29T04:29:01.076Z,3.15
2023-03-29T04:31:44.882Z,3.17
2023-03-29T04:34:38.822Z,3.70
2023-03-29T04:37:13.150Z,2.70
2023-03-29T04:39:45.155Z,3.88
2023-03-29T04:42:16.901Z,3.40
2023-03-29T04:44:50.153Z,2.72
2023-03-29T04:47:30.177Z,3.22
2023-03-29T04:50:06.792Z,2.85
2023-03-29T04:52:51.145Z,3.22
2023-03-29T04:55:22.403Z,3.53
2023-03-29T04:58:03.192Z,3.20
2023-03-29T05:00:35.978Z,3.40
2023-03-29T05:03:25.904Z,3.00
2023-03-29T05:06:07.543Z,3.22
2023-03-29T05:08:44.390Z,3.40
2023-03-29T05:11:38.672Z,3.60
2023-03-29T05:14:09.892Z,3.38
2023-03-29T05:16:42.587Z,4.40
2023-03-29T05:19:14.608Z,5.05
2023-03-29T05:21:50.366Z,2.78
2023-03-29T05:24:28.197Z,2.55
2023-03-29T05:27:05.255Z,3.08
2023-03-29T05:29:40.076Z,2.90
2023-03-29T05:32:31.146Z,3.17
2023-03-29T05:35:01.833Z,2.80
2023-03-29T05:37:35.121Z,2.88
2023-03-29T05:40:13.272Z,2.90
2023-03-29T05:43:10.244Z,2.80
2023-03-29T05:45:41.917Z,2.30
2023-03-29T05:48:13.891Z,2.38
2023-03-29T05:50:50.325Z,2.88
2023-03-29T05:53:23.367Z,2.28
2023-03-29T05:55:57.058Z,2.15
2023-03-29T05:58:31.356Z,1.98
2023-03-29T06:01:04.914Z,1.92
2023-03-29T06:04:02.291Z,2.53
2023-03-29T06:06:55.668Z,2.35
2023-03-29T06:09:27.008Z,2.00
2023-03-29T06:12:05.861Z,3.20
2023-03-29T06:15:05.485Z,3.05
2023-03-29T06:17:46.166Z,3.13
2023-03-29T06:20:17.962Z,2.30
2023-03-29T06:22:53.840Z,2.00
2023-03-29T06:25:25.348Z,1.80
2023-03-29T06:27:59.232Z,1.98
2023-03-29T06:30:30.338Z,2.53
2023-03-29T06:33:02.391Z,2.60
2023-03-29T06:35:53.752Z,1.83
2023-03-29T06:38:31.279Z,4.88
2023-03-29T06:41:15.263Z,3.33
2023-03-29T06:44:07.715Z,4.28
2023-03-29T06:46:52.999Z,3.65
2023-03-29T06:49:25.145Z,2.58
2023-03-29T06:52:21.626Z,2.33
2023-03-29T06:54:52.488Z,2.10
2023-03-29T06:57:24.071Z,2.15
2023-03-29T06:59:57.919Z,2.60
2023-03-29T07:02:42.600Z,2.30
2023-03-29T07:05:16.793Z,1.90
2023-03-29T07:08:00.549Z,1.80
2023-03-29T07:10:50.012Z,1.92
2023-03-29T07:13:42.901Z,2.05
2023-03-29T07:16:19.801Z,1.95
2023-03-29T07:19:16.432Z,2.28
2023-03-29T07:21:59.589Z,1.88
2023-03-29T07:24:43.878Z,2.00
2023-03-29T07:27:15.130Z,2.00
2023-03-29T07:29:46.914Z,1.80
2023-03-29T07:32:20.993Z,1.50
2023-03-29T07:35:18.130Z,1.50
2023-03-29T07:37:50.247Z,1.70
2023-03-29T07:40:24.605Z,1.50
2023-03-29T07:43:01.705Z,1.65
2023-03-29T07:45:36.408Z,1.90
2023-03-29T07:48:14.995Z,1.55
2023-03-29T07:51:09.728Z,1.98
2023-03-29T07:53:48.154Z,1.70
2023-03-29T07:56:45.432Z,1.60
2023-03-29T07:59:23.216Z,1.77
2023-03-29T08:02:02.764Z,1.48
2023-03-29T08:04:44.384Z,2.45
2023-03-29T08:07:22.367Z,1.58
2023-03-29T08:10:14.272Z,2.20
2023-03-29T08:12:54.518Z,1.83
2023-03-29T08:15:33.039Z,1.70
2023-03-29T08:18:03.938Z,1.58
2023-03-29T08:20:38.593Z,1.80
2023-03-29T08:23:09.541Z,2.15
2023-03-29T08:26:09.345Z,1.75
2023-03-29T08:28:41.801Z,1.70
2023-03-29T08:31:13.902Z,2.13
2023-03-29T08:33:48.287Z,2.20
2023-03-29T08:36:48.001Z,1.38
2023-03-29T08:39:28.120Z,1.50
2023-03-29T08:42:58.804Z,2.30
2023-03-29T08:45:43.554Z,1.67
2023-03-29T08:48:24.772Z,1.73
2023-03-29T08:51:00.338Z,1.60
2023-03-29T08:53:38.955Z,2.13
2023-03-29T08:56:18.980Z,1.65
2023-03-29T08:58:55.185Z,2.95
2023-03-29T09:01:31.337Z,2.33
2023-03-29T09:04:10.151Z,2.30
2023-03-29T09:06:58.914Z,2.30
2023-03-29T09:09:40.415Z,1.90
2023-03-29T09:12:44.478Z,1.52
2023-03-29T09:15:21.962Z,1.60
2023-03-29T09:18:13.492Z,2.03
2023-03-29T09:20:55.514Z,1.48
2023-03-29T09:23:41.751Z,1.73
2023-03-29T09:26:39.645Z,1.60
2023-03-29T09:29:50.656Z,1.52
2023-03-29T09:32:29.180Z,1.40
2023-03-29T09:35:18.766Z,1.60
2023-03-29T09:37:53.843Z,2.25
2023-03-29T09:40:30.111Z,2.28
2023-03-29T09:43:33.105Z,1.90
2023-03-29T09:46:16.232Z,1.85
2023-03-29T09:48:49.643Z,2.38
2023-03-29T09:51:23.115Z,2.17
2023-03-29T09:53:54.171Z,1.90
2023-03-29T09:56:45.458Z,2.55
2023-03-29T09:59:22.436Z,1.87
2023-03-29T10:01:53.537Z,1.70
2023-03-29T10:04:24.212Z,1.73
2023-03-29T10:07:04.478Z,2.05
2023-03-29T10:09:36.414Z,2.05
2023-03-29T10:12:20.051Z,2.10
2023-03-29T10:14:56.745Z,2.60
2023-03-29T10:17:33.013Z,2.33
2023-03-29T10:20:10.103Z,2.75
2023-03-29T10:22:42.606Z,1.88
2023-03-29T10:25:17.705Z,2.08
2023-03-29T10:27:51.834Z,1.92
2023-03-29T10:30:28.919Z,2.00
2023-03-29T10:33:01.400Z,1.98
2023-03-29T10:35:36.635Z,2.88
2023-03-29T10:38:10.684Z,2.50
2023-03-29T10:40:47.598Z,1.80
2023-03-29T10:43:25.760Z,2.25
2023-03-29T10:46:08.599Z,2.00
2023-03-29T10:48:39.636Z,2.20
2023-03-29T10:51:10.617Z,1.70
2023-03-29T10:53:41.720Z,1.80
2023-03-29T10:56:32.635Z,2.00
2023-03-29T10:59:27.704Z,2.13
2023-03-29T11:02:37.572Z,2.15
2023-03-29T11:05:25.027Z,2.70
2023-03-29T11:08:16.524Z,1.63
2023-03-29T11:10:58.157Z,1.90
2023-03-29T11:13:39.226Z,1.40
2023-03-29T11:16:18.927Z,2.25
2023-03-29T11:19:17.903Z,1.90
2023-03-29T11:21:59.765Z,2.33
2023-03-29T11:24:38.047Z,2.25
2023-03-29T11:27:20.353Z,1.52
2023-03-29T11:30:06.723Z,2.10
2023-03-29T11:32:47.603Z,2.08
2023-03-29T11:35:40.071Z,2.30
2023-03-29T11:38:23.164Z,2.58
2023-03-29T11:41:01.690Z,2.63
2023-03-29T11:43:38.323Z,1.88
2023-03-29T11:46:15.642Z,2.05
2023-03-29T11:48:53.864Z,2.85
2023-03-29T11:51:29.254Z,2.47
2023-03-29T11:54:07.797Z,2.67
2023-03-29T11:56:43.739Z,2.38
2023-03-29T11:59:19.587Z,1.98
2023-03-29T12:01:56.042Z,2.13
2023-03-29T12:04:33.349Z,2.13
2023-03-29T12:07:12.581Z,2.15
2023-03-29T12:09:53.100Z,2.13
2023-03-29T12:12:28.346Z,3.20
2023-03-29T12:15:05.814Z,3.47
2023-03-29T12:17:42.697Z,2.60
2023-03-29T12:20:21.516Z,2.40
2023-03-29T12:22:56.036Z,3.33
2023-03-29T12:25:34.824Z,2.35
2023-03-29T12:28:26.484Z,2.25
2023-03-29T12:31:05.469Z,2.35
2023-03-29T12:34:05.499Z,2.00
2023-03-29T12:37:13.017Z,2.35
2023-03-29T12:39:49.789Z,1.77
2023-03-29T12:43:05.655Z,2.25
2023-03-29T12:46:09.575Z,1.85
2023-03-29T12:48:43.385Z,1.40
2023-03-29T12:51:17.822Z,1.92
2023-03-29T12:53:51.453Z,1.67
2023-03-29T12:56:24.810Z,1.90
2023-03-29T12:59:09.826Z,1.77
2023-03-29T13:01:42.115Z,1.93
2023-03-29T13:04:20.118Z,1.88
2023-03-29T13:07:07.503Z,1.70
2023-03-29T13:09:50.228Z,1.27
2023-03-29T13:12:29.656Z,1.67
2023-03-29T13:15:08.530Z,1.98
2023-03-29T13:17:52.983Z,4.25
2023-03-29T13:20:44.565Z,3.42
2023-03-29T13:23:32.099Z,3.38
2023-03-29T13:26:23.965Z,2.55
2023-03-29T13:29:20.155Z,2.20
2023-03-29T13:32:00.634Z,1.92
2023-03-29T13:34:40.865Z,2.10
2023-03-29T13:37:33.367Z,2.95
2023-03-29T13:40:06.138Z,2.88
2023-03-29T13:42:46.715Z,1.73
2023-03-29T13:45:19.996Z,2.13
2023-03-29T13:48:05.732Z,2.05
2023-03-29T13:50:40.584Z,1.80
2023-03-29T13:53:18.538Z,2.10
2023-03-29T13:55:54.269Z,2.80
2023-03-29T13:58:36.207Z,4.80
2023-03-29T14:01:15.099Z,2.25
2023-03-29T14:03:52.241Z,2.50
2023-03-29T14:06:29.817Z,2.40
2023-03-29T14:09:02.794Z,2.10
2023-03-29T14:11:34.418Z,1.95
2023-03-29T14:14:08.750Z,3.00
2023-03-29T14:16:42.182Z,3.50
2023-03-29T14:19:21.895Z,2.78
2023-03-29T14:21:54.034Z,3.65
2023-03-29T14:24:29.033Z,1.98
2023-03-29T14:27:00.028Z,1.85
2023-03-29T14:29:34.253Z,1.85
2023-03-29T14:32:13.662Z,2.10
2023-03-29T14:34:47.472Z,2.25
2023-03-29T14:37:24.931Z,2.08
2023-03-29T14:39:56.738Z,1.63
2023-03-29T14:42:30.349Z,2.13
2023-03-29T14:45:05.478Z,1.90
2023-03-29T14:47:37.257Z,1.80
2023-03-29T14:50:21.851Z,2.35
2023-03-29T14:52:54.560Z,2.90
2023-03-29T14:55:27.540Z,2.53
2023-03-29T14:58:00.531Z,1.42
2023-03-29T15:00:35.373Z,2.03
2023-03-29T15:03:07.044Z,2.65
2023-03-29T15:05:44.360Z,2.42
2023-03-29T15:08:20.284Z,2.97
2023-03-29T15:10:52.125Z,2.60
2023-03-29T15:13:26.077Z,2.28
2023-03-29T15:16:00.798Z,3.67
2023-03-29T15:18:38.753Z,2.53
2023-03-29T15:21:14.477Z,2.42
2023-03-29T15:23:51.125Z,1.52
2023-03-29T15:26:28.099Z,2.33
2023-03-29T15:29:08.279Z,1.88
2023-03-29T15:31:41.583Z,1.50
2023-03-29T15:34:16.000Z,1.88
2023-03-29T15:36:49.546Z,1.65
2023-03-29T15:39:21.917Z,2.00
2023-03-29T15:41:54.606Z,2.30
2023-03-29T15:44:29.937Z,1.55
2023-03-29T15:47:01.586Z,2.45
2023-03-29T15:49:32.575Z,3.13
2023-03-29T15:52:05.994Z,2.38
2023-03-29T15:54:37.545Z,2.20
2023-03-29T15:57:10.461Z,2.13
2023-03-29T15:59:41.586Z,1.75
2023-03-29T16:02:17.068Z,1.98
2023-03-29T16:07:23.029Z,2.22
2023-03-29T16:09:53.750Z,4.15
2023-03-29T16:12:24.534Z,3.50
2023-03-29T16:14:55.427Z,2.53
2023-03-29T16:17:26.177Z,2.88
2023-03-29T16:19:57.430Z,2.50
2023-03-29T16:22:30.935Z,2.30
2023-03-29T16:25:01.768Z,2.65
2023-03-29T16:27:33.818Z,2.40
2023-03-29T16:30:04.625Z,2.55
2023-03-29T16:32:35.777Z,2.30
2023-03-29T16:35:06.876Z,2.65
2023-03-29T16:37:40.416Z,3.08
2023-03-29T16:40:13.070Z,2.75
2023-03-29T16:42:44.830Z,2.40
2023-03-29T16:45:17.310Z,2.72
2023-03-29T16:47:48.736Z,2.28
2023-03-29T16:50:22.161Z,2.97
2023-03-29T16:52:56.100Z,3.22
2023-03-29T16:55:27.161Z,3.30
2023-03-29T16:57:58.232Z,3.00
2023-03-29T17:00:29.579Z,3.05
2023-03-29T17:03:02.188Z,4.18
2023-03-29T17:05:38.226Z,3.25
2023-03-29T17:08:12.527Z,3.30
2023-03-29T17:10:44.141Z,3.75
2023-03-29T17:13:15.678Z,4.38
2023-03-29T17:15:46.937Z,3.30
2023-03-29T17:18:17.738Z,3.00
2023-03-29T17:20:48.548Z,3.90
2023-03-29T17:23:22.355Z,5.53
2023-03-29T17:25:53.512Z,5.72
2023-03-29T17:28:24.532Z,4.90
2023-03-29T17:30:55.670Z,4.55
2023-03-29T17:33:26.562Z,4.95
2023-03-29T17:35:57.956Z,5.00
2023-03-29T17:38:34.490Z,4.28
2023-03-29T17:41:07.351Z,3.95
2023-03-29T17:43:38.130Z,4.10
2023-03-29T17:46:09.934Z,4.00
2023-03-29T17:48:40.634Z,3.75
2023-03-29T17:51:11.691Z,3.28
2023-03-29T17:53:45.062Z,3.15
2023-03-29T17:56:16.414Z,3.70
2023-03-29T17:58:49.330Z,4.22
2023-03-29T18:01:22.467Z,3.90
2023-03-29T18:03:53.208Z,3.38
2023-03-29T18:06:24.322Z,3.88
2023-03-29T18:08:57.694Z,3.58
2023-03-29T18:11:28.750Z,2.50
2023-03-29T18:14:02.400Z,2.50
2023-03-29T18:16:33.280Z,2.50
2023-03-29T18:19:04.124Z,2.10
2023-03-29T18:21:34.912Z,2.33
2023-03-29T18:24:08.475Z,1.83
2023-03-29T18:26:39.298Z,1.63
2023-03-29T18:29:10.099Z,2.15
2023-03-29T18:31:41.073Z,1.90
2023-03-29T18:34:11.924Z,2.42
2023-03-29T18:36:43.249Z,3.40
2023-03-29T18:39:16.684Z,2.88
2023-03-29T18:41:47.342Z,3.47
2023-03-29T18:44:19.152Z,3.13
2023-03-29T18:46:50.172Z,4.10
2023-03-29T18:49:21.687Z,2.83
2023-03-29T18:51:52.778Z,3.35
2023-03-29T18:54:26.057Z,2.50
2023-03-29T18:56:59.119Z,3.63
2023-03-29T18:59:30.222Z,3.75
2023-03-29T19:02:01.210Z,3.08
2023-03-29T19:04:32.172Z,3.50
2023-03-29T19:07:03.945Z,3.60
2023-03-29T19:09:37.417Z,4.15
2023-03-29T19:12:08.445Z,3.30
2023-03-29T19:14:39.119Z,3.28
2023-03-29T19:17:09.778Z,2.70
2023-03-29T19:19:40.922Z,3.67
2023-03-29T19:22:11.769Z,8.30
2023-03-29T19:24:45.194Z,14.38
2023-03-29T19:27:16.459Z,15.18
2023-03-29T19:29:48.419Z,16.88
2023-03-29T19:32:19.390Z,14.95
2023-03-29T19:34:49.999Z,18.48
2023-03-29T19:37:21.164Z,15.63
2023-03-29T19:39:55.916Z,18.92
2023-03-29T19:42:26.978Z,16.23
2023-03-29T19:44:57.705Z,17.70
2023-03-29T19:47:28.643Z,17.67
2023-03-29T19:50:01.021Z,17.75
2023-03-29T19:52:33.205Z,17.65
2023-03-29T19:55:07.817Z,14.98
2023-03-29T19:57:39.216Z,13.63
2023-03-29T20:00:11.969Z,13.55
2023-03-29T20:02:45.732Z,13.05
2023-03-29T20:05:16.870Z,11.88
2023-03-29T20:07:47.739Z,12.40
2023-03-29T20:10:21.393Z,11.50
2023-03-29T20:12:52.045Z,12.52
2023-03-29T20:15:25.921Z,12.15
2023-03-29T20:17:59.273Z,11.38
2023-03-29T20:20:30.823Z,12.18
2023-03-29T20:23:05.239Z,10.95
2023-03-29T20:25:41.297Z,9.48
2023-03-29T20:28:13.366Z,9.68
2023-03-29T20:30:44.799Z,10.75
2023-03-29T20:33:15.984Z,10.13
2023-03-29T20:35:48.074Z,10.55
2023-03-29T20:38:19.346Z,9.73
2023-03-29T20:40:52.844Z,8.75
2023-03-29T20:43:24.652Z,8.60
2023-03-29T20:45:55.850Z,8.73
2023-03-29T20:48:26.604Z,8.35
2023-03-29T20:50:57.974Z,8.02
2023-03-29T20:53:34.987Z,7.65
2023-03-29T20:56:09.132Z,8.27
2023-03-29T20:58:42.274Z,7.80
2023-03-29T21:01:15.147Z,9.38
2023-03-29T21:03:46.014Z,8.65
2023-03-29T21:06:19.612Z,8.40
2023-03-29T21:08:51.037Z,7.25
2023-03-29T21:11:24.803Z,7.95
2023-03-29T21:13:56.036Z,7.85
2023-03-29T21:16:29.445Z,7.38
2023-03-29T21:19:00.516Z,10.20
2023-03-29T21:21:33.910Z,7.88
2023-03-29T21:24:05.290Z,6.97
2023-03-29T21:26:38.857Z,6.82
2023-03-29T21:29:09.761Z,7.43
2023-03-29T21:31:41.212Z,7.55
2023-03-29T21:34:12.117Z,7.60
2023-03-29T21:36:43.032Z,7.03
2023-03-29T21:39:14.349Z,7.15
2023-03-29T21:41:47.778Z,6.07
2023-03-29T21:44:18.770Z,6.55
2023-03-29T21:46:49.554Z,7.25
2023-03-29T21:49:20.814Z,6.78
2023-03-29T21:51:51.845Z,6.72
2023-03-29T21:54:22.687Z,6.35
2023-03-29T21:56:56.045Z,5.80
2023-03-29T21:59:28.357Z,6.43
2023-03-29T22:01:59.272Z,5.13
2023-03-29T22:04:37.049Z,5.45
2023-03-29T22:07:10.960Z,5.40
2023-03-29T22:09:42.781Z,6.03
2023-03-29T22:12:16.279Z,5.55
2023-03-29T22:14:47.336Z,5.90
2023-03-29T22:17:18.245Z,6.07
2023-03-29T22:19:49.264Z,5.75
2023-03-29T22:22:20.028Z,5.70
2023-03-29T22:24:51.049Z,5.18
2023-03-29T22:27:25.906Z,5.20
2023-03-29T22:29:56.842Z,5.35
2023-03-29T22:32:27.821Z,5.97
2023-03-29T22:34:58.774Z,5.75
2023-03-29T22:37:29.590Z,5.78
2023-03-29T22:40:00.573Z,5.47
2023-03-29T22:42:34.107Z,5.15
2023-03-29T22:45:05.049Z,6.10
2023-03-29T22:47:35.913Z,5.60
2023-03-29T22:50:07.661Z,5.32
2023-03-29T22:52:38.533Z,5.43
2023-03-29T22:55:10.408Z,6.20
2023-03-29T22:57:44.221Z,5.65
2023-03-29T23:00:16.736Z,5.45
2023-03-29T23:02:47.685Z,5.43
2023-03-29T23:05:18.700Z,5.68
2023-03-29T23:07:49.484Z,5.55
2023-03-29T23:10:20.826Z,5.28
2023-03-29T23:12:54.660Z,5.47
2023-03-29T23:15:26.278Z,4.95
2023-03-29T23:17:58.327Z,4.53
2023-03-29T23:20:29.435Z,4.60
2023-03-29T23:23:00.132Z,5.15
2023-03-29T23:25:31.876Z,5.55
2023-03-29T23:28:05.238Z,5.70
2023-03-29T23:30:37.502Z,6.60
2023-03-29T23:33:10.699Z,5.35
2023-03-29T23:35:41.697Z,6.18
2023-03-29T23:38:12.364Z,5.90
2023-03-29T23:40:43.282Z,5.57
2023-03-29T23:43:17.431Z,4.80
2023-03-29T23:45:48.291Z,5.90
2023-03-29T23:48:20.554Z,6.28
2023-03-29T23:50:51.622Z,6.25
2023-03-29T23:53:22.937Z,6.85
2023-03-29T23:55:54.086Z,4.93
2023-03-29T23:58:27.569Z,5.40
